aviador You're here:

KBLV Decoded Metar

BELLEVILLE in IL, USA
Report Time2018-05-23 05:56:00
UTC Time2018-05-23 06:54:12
Flight Rules vfr VFR
Wind030° at 04 kt
W.Decomp.*RWY 32: 1.5 kt HW 3.7 kt RCW
W.Rank030° ranks 22
Current wind is below 030° avg. (5.2)
Visibility9999 m
Phenomena:N/A
Clouds:N/A
Expected CloudBase > 1,200 ft AGL from Temp-Dew spread
CeilingNone
Temp21°C (ISA +7)
Dew Point18°C (83% RH)
QNH1018 hPa
Density Alt1,365 ft
Elevation453 ft
Report Wrong Elevation
Raw Report
KBLV 230556Z AUTO 03004KT 10SM CLR 21/18 A3005 RMK AO2 SLPNO
T02090175 10280 20208 402930187 51006 $=

Extra information for KBLV:More info

Metar Taf Metar & Taf Last 4 Metars F.Rules Stats Wind Profile Meteogram Temp Stats Airport Information Weather charts Add Link Nearby VenuesMetar ALERT Operation Metar Decoded Social comments

AIRNAV info for KBLV